Time;durP1;ratioP1;P1;durP2;ratioP2;P2;SDS_P1;SDS_P2;PMS_P1;PMS_P2;Temp;Humidity;BMP_temperature;BMP_pressure;BME280_temperature;BME280_humidity;BME280_pressure;Samples;Min_cycle;Max_cycle;Signal;HPM_P1;HPM_P2
2021/03/30 00:00:21;;;;;;;26.27;18.63;;;;;;;;;;5114361;28;20227;-80
2021/03/30 00:02:47;;;;;;;23.33;16.95;;;;;;;;;;5113367;28;20175;-82
2021/03/30 00:05:13;;;;;;;26.90;17.67;;;;;;;;;;5113966;28;20210;-80
2021/03/30 00:07:39;;;;;;;22.73;17.33;;;;;;;;;;5113992;28;20435;-76
2021/03/30 00:10:07;;;;;;;28.30;18.30;;;;;;;;;;5113930;28;20175;-77
2021/03/30 00:12:33;;;;;;;23.60;16.65;;;;;;;;;;5112439;28;20189;-76
2021/03/30 00:14:59;;;;;;;18.90;15.90;;;;;;;;;;5103969;28;20194;-79
2021/03/30 00:17:25;;;;;;;20.55;15.30;;;;;;;;;;5114108;28;20411;-78
2021/03/30 00:19:51;;;;;;;20.73;15.43;;;;;;;;;;5113800;28;20258;-80
2021/03/30 00:22:17;;;;;;;20.00;14.60;;;;;;;;;;5114195;28;20417;-77
2021/03/30 00:24:43;;;;;;;21.85;14.63;;;;;;;;;;5112505;28;20440;-78
2021/03/30 00:27:09;;;;;;;19.23;13.90;;;;;;;;;;5095590;28;20180;-77
2021/03/30 00:29:42;;;;;;;19.43;13.27;;;;;;;;;;5093134;28;20500;-79
2021/03/30 00:32:12;;;;;;;18.08;13.57;;;;;;;;;;5091903;28;20913;-79
2021/03/30 00:34:38;;;;;;;22.52;12.70;;;;;;;;;;5108583;28;20289;-78
2021/03/30 00:37:04;;;;;;;17.33;12.55;;;;;;;;;;5097728;28;20182;-76
2021/03/30 00:39:31;;;;;;;22.13;12.52;;;;;;;;;;5095280;28;20635;-77
2021/03/30 00:41:57;;;;;;;18.50;12.63;;;;;;;;;;5096280;28;20183;-78
2021/03/30 00:44:23;;;;;;;21.10;12.53;;;;;;;;;;5100860;28;20535;-79
2021/03/30 00:46:50;;;;;;;18.23;12.80;;;;;;;;;;5113615;28;20545;-77
2021/03/30 00:49:17;;;;;;;18.00;12.27;;;;;;;;;;5092613;28;20202;-79
2021/03/30 00:51:43;;;;;;;17.17;12.00;;;;;;;;;;5093572;28;20182;-77
2021/03/30 00:54:09;;;;;;;16.55;12.52;;;;;;;;;;5101363;28;20221;-78
2021/03/30 00:56:36;;;;;;;19.93;13.80;;;;;;;;;;5111902;28;20187;-77
2021/03/30 00:59:02;;;;;;;19.40;12.52;;;;;;;;;;5092643;28;20419;-79
2021/03/30 01:01:28;;;;;;;21.80;13.57;;;;;;;;;;5092515;28;20510;-80
2021/03/30 01:03:54;;;;;;;19.77;14.60;;;;;;;;;;5092843;28;20182;-80
2021/03/30 01:06:20;;;;;;;21.47;14.07;;;;;;;;;;5092408;28;20211;-80
2021/03/30 01:09:05;;;;;;;22.73;14.93;;;;;;;;;;5092875;28;20966;-79
2021/03/30 01:11:31;;;;;;;24.38;15.07;;;;;;;;;;5111649;28;20412;-77
2021/03/30 01:14:06;;;;;;;23.83;14.33;;;;;;;;;;5099739;28;20552;-81
2021/03/30 01:16:46;;;;;;;21.80;15.45;;;;;;;;;;5093035;28;20421;-79
2021/03/30 01:19:29;;;;;;;27.27;16.00;;;;;;;;;;5106977;28;20179;-79
2021/03/30 01:22:11;;;;;;;20.23;14.80;;;;;;;;;;5089049;28;20293;-77
2021/03/30 01:24:43;;;;;;;21.60;15.35;;;;;;;;;;5092651;28;20306;-76
2021/03/30 01:27:10;;;;;;;21.98;15.10;;;;;;;;;;5092822;28;20262;-79
2021/03/30 01:29:45;;;;;;;25.33;15.57;;;;;;;;;;5093274;28;20219;-78
2021/03/30 01:32:24;;;;;;;23.23;16.55;;;;;;;;;;5093052;28;20236;-78
2021/03/30 01:34:51;;;;;;;23.00;15.85;;;;;;;;;;5105309;28;20677;-79
2021/03/30 01:37:18;;;;;;;23.15;15.27;;;;;;;;;;5094103;28;20516;-77
2021/03/30 01:39:45;;;;;;;25.52;14.63;;;;;;;;;;5094580;28;20194;-80
2021/03/30 01:42:11;;;;;;;22.52;15.07;;;;;;;;;;5096159;28;20176;-78
2021/03/30 01:44:41;;;;;;;24.25;14.90;;;;;;;;;;5095908;28;20200;-80
2021/03/30 01:47:08;;;;;;;25.13;16.20;;;;;;;;;;5096131;28;20179;-79
2021/03/30 01:49:34;;;;;;;20.63;15.40;;;;;;;;;;5094087;28;20708;-81
2021/03/30 01:52:01;;;;;;;23.75;15.45;;;;;;;;;;5099339;28;20512;-78
2021/03/30 01:54:27;;;;;;;22.73;15.05;;;;;;;;;;5099998;28;20206;-79
2021/03/30 01:56:55;;;;;;;21.10;14.02;;;;;;;;;;5099435;28;20175;-81
2021/03/30 01:59:22;;;;;;;22.95;14.10;;;;;;;;;;5099174;28;20179;-79
2021/03/30 02:01:48;;;;;;;20.45;15.05;;;;;;;;;;5098153;28;20175;-79
2021/03/30 02:04:15;;;;;;;15.88;13.43;;;;;;;;;;5106337;28;20187;-81
2021/03/30 02:06:43;;;;;;;25.00;13.90;;;;;;;;;;5102593;28;20503;-77
2021/03/30 02:09:14;;;;;;;18.13;14.70;;;;;;;;;;5111174;28;20176;-78
2021/03/30 02:11:47;;;;;;;24.63;14.00;;;;;;;;;;5114239;28;20185;-78
2021/03/30 02:14:13;;;;;;;16.40;13.07;;;;;;;;;;5100702;28;20257;-78
2021/03/30 02:16:45;;;;;;;18.10;13.82;;;;;;;;;;5095178;28;20172;-78
2021/03/30 02:19:13;;;;;;;19.52;13.48;;;;;;;;;;5109138;28;20218;-79
2021/03/30 02:21:47;;;;;;;22.88;13.18;;;;;;;;;;5106414;28;20175;-79
2021/03/30 02:24:14;;;;;;;21.75;12.45;;;;;;;;;;5094980;28;20504;-78
2021/03/30 02:26:41;;;;;;;19.75;12.95;;;;;;;;;;5095319;28;20262;-80
2021/03/30 02:29:09;;;;;;;21.15;11.63;;;;;;;;;;5095659;28;20183;-77
2021/03/30 02:31:36;;;;;;;13.75;11.80;;;;;;;;;;5095053;28;20240;-81
2021/03/30 02:34:05;;;;;;;17.67;11.60;;;;;;;;;;5095142;28;20617;-79
2021/03/30 02:36:32;;;;;;;20.13;13.15;;;;;;;;;;5095326;28;20195;-80
2021/03/30 02:39:00;;;;;;;15.52;11.70;;;;;;;;;;5098188;28;20201;-79
2021/03/30 02:41:28;;;;;;;18.20;11.63;;;;;;;;;;5115772;28;20181;-80
2021/03/30 02:43:56;;;;;;;15.52;11.75;;;;;;;;;;5101996;28;20241;-80
2021/03/30 02:46:23;;;;;;;18.90;12.75;;;;;;;;;;5095173;28;20195;-78
2021/03/30 02:48:50;;;;;;;13.70;11.25;;;;;;;;;;5095397;28;20203;-78
2021/03/30 02:51:16;;;;;;;23.98;11.90;;;;;;;;;;5099347;28;20177;-78
2021/03/30 02:53:42;;;;;;;14.98;11.18;;;;;;;;;;5119337;28;20204;-77
2021/03/30 02:56:09;;;;;;;18.35;12.13;;;;;;;;;;5105677;28;20199;-77
2021/03/30 02:58:35;;;;;;;15.18;11.13;;;;;;;;;;5105744;28;20248;-77
2021/03/30 03:01:01;;;;;;;17.25;11.60;;;;;;;;;;5106193;28;20178;-76
2021/03/30 03:03:32;;;;;;;18.85;12.00;;;;;;;;;;5110598;28;20246;-78
2021/03/30 03:05:59;;;;;;;14.95;10.85;;;;;;;;;;5106409;28;20211;-77
2021/03/30 03:08:25;;;;;;;16.92;11.80;;;;;;;;;;5124978;28;20175;-76
2021/03/30 03:10:52;;;;;;;21.10;11.40;;;;;;;;;;5116881;28;20183;-78
2021/03/30 03:13:19;;;;;;;18.15;10.38;;;;;;;;;;5094505;28;20291;-80
2021/03/30 03:15:45;;;;;;;18.50;11.50;;;;;;;;;;5094050;28;20187;-78
2021/03/30 03:18:11;;;;;;;16.98;10.80;;;;;;;;;;5113594;28;20202;-76
2021/03/30 03:20:38;;;;;;;16.10;11.13;;;;;;;;;;5109337;28;20192;-80
2021/03/30 03:23:04;;;;;;;14.73;10.60;;;;;;;;;;5105230;28;20183;-77
2021/03/30 03:25:31;;;;;;;13.50;10.52;;;;;;;;;;5106681;28;20285;-77
2021/03/30 03:27:57;;;;;;;14.57;10.48;;;;;;;;;;5108952;28;20176;-79
2021/03/30 03:30:24;;;;;;;15.02;10.10;;;;;;;;;;5093883;28;20206;-77
2021/03/30 03:32:50;;;;;;;18.95;10.48;;;;;;;;;;5092532;28;20535;-80
2021/03/30 03:35:16;;;;;;;13.77;10.40;;;;;;;;;;5093991;28;20188;-78
2021/03/30 03:37:46;;;;;;;15.57;10.70;;;;;;;;;;5093807;28;20406;-79
2021/03/30 03:40:14;;;;;;;15.52;9.77;;;;;;;;;;5093790;28;20406;-80
2021/03/30 03:42:40;;;;;;;15.52;9.85;;;;;;;;;;5093271;28;20264;-80
2021/03/30 03:45:07;;;;;;;17.77;10.77;;;;;;;;;;5094215;28;20278;-80
2021/03/30 03:47:33;;;;;;;15.68;9.90;;;;;;;;;;5094841;28;20225;-80
2021/03/30 03:50:01;;;;;;;13.30;10.40;;;;;;;;;;5094203;28;20177;-78
2021/03/30 03:52:27;;;;;;;18.60;11.20;;;;;;;;;;5094104;28;20182;-77
2021/03/30 03:54:57;;;;;;;15.05;9.40;;;;;;;;;;5094378;28;20210;-77
2021/03/30 03:57:25;;;;;;;15.18;9.65;;;;;;;;;;5094268;28;20179;-78
2021/03/30 03:59:51;;;;;;;17.23;11.05;;;;;;;;;;5107917;28;20255;-79
2021/03/30 04:02:19;;;;;;;16.55;10.88;;;;;;;;;;5096318;28;20172;-80
2021/03/30 04:04:51;;;;;;;14.20;10.80;;;;;;;;;;5093129;28;20211;-80
2021/03/30 04:07:25;;;;;;;14.40;9.88;;;;;;;;;;5103573;28;20269;-77
2021/03/30 04:09:52;;;;;;;18.13;10.25;;;;;;;;;;5111584;28;20181;-81
2021/03/30 04:12:19;;;;;;;16.13;10.30;;;;;;;;;;5093676;28;20181;-77
2021/03/30 04:14:46;;;;;;;16.20;10.68;;;;;;;;;;5092450;28;20245;-78
2021/03/30 04:17:15;;;;;;;18.60;10.73;;;;;;;;;;5093174;28;20559;-80
2021/03/30 04:19:42;;;;;;;13.60;10.25;;;;;;;;;;5111931;28;20240;-79
2021/03/30 04:22:09;;;;;;;16.08;10.18;;;;;;;;;;5114185;28;20171;-77
2021/03/30 04:24:34;;;;;;;18.92;11.95;;;;;;;;;;5102773;28;20602;-80
2021/03/30 04:27:00;;;;;;;16.43;11.30;;;;;;;;;;5093240;28;20175;-78
2021/03/30 04:29:26;;;;;;;17.00;11.77;;;;;;;;;;5093397;28;20759;-76
2021/03/30 04:31:52;;;;;;;23.45;12.85;;;;;;;;;;5092988;28;20405;-80
2021/03/30 04:34:18;;;;;;;17.53;13.10;;;;;;;;;;5110206;28;20755;-77
2021/03/30 04:36:44;;;;;;;20.97;13.30;;;;;;;;;;5093175;28;20770;-81
2021/03/30 04:39:10;;;;;;;16.07;12.73;;;;;;;;;;5092751;28;20424;-81
2021/03/30 04:41:36;;;;;;;17.20;12.80;;;;;;;;;;5092796;28;20417;-79
2021/03/30 04:44:02;;;;;;;18.70;12.90;;;;;;;;;;5110428;28;20931;-79
2021/03/30 04:46:28;;;;;;;21.27;12.88;;;;;;;;;;5096751;28;20782;-79
2021/03/30 04:48:54;;;;;;;18.30;13.77;;;;;;;;;;5096721;28;20175;-80
2021/03/30 04:51:20;;;;;;;17.90;13.87;;;;;;;;;;5093065;28;20175;-79
2021/03/30 04:53:46;;;;;;;22.40;13.93;;;;;;;;;;5096806;28;20455;-80
2021/03/30 04:56:12;;;;;;;20.80;15.10;;;;;;;;;;5110618;28;20441;-80
2021/03/30 04:58:38;;;;;;;20.17;14.97;;;;;;;;;;5103234;28;20509;-79
2021/03/30 05:01:04;;;;;;;22.70;15.27;;;;;;;;;;5092253;28;20432;-80
2021/03/30 05:03:30;;;;;;;22.13;15.80;;;;;;;;;;5110787;28;20412;-79
2021/03/30 05:05:56;;;;;;;20.93;16.13;;;;;;;;;;5106611;28;20460;-78
2021/03/30 05:08:22;;;;;;;22.23;16.23;;;;;;;;;;5092999;28;20413;-77
2021/03/30 05:10:50;;;;;;;24.10;16.83;;;;;;;;;;5093413;28;20421;-77
2021/03/30 05:13:16;;;;;;;24.45;16.55;;;;;;;;;;5114360;28;20805;-77
2021/03/30 05:15:42;;;;;;;20.65;16.02;;;;;;;;;;5102895;28;20192;-78
2021/03/30 05:18:08;;;;;;;25.50;15.90;;;;;;;;;;5106300;28;20579;-79
2021/03/30 05:20:34;;;;;;;23.00;15.40;;;;;;;;;;5096587;28;20663;-80
2021/03/30 05:23:00;;;;;;;23.80;17.70;;;;;;;;;;5095936;28;20175;-77
2021/03/30 05:25:26;;;;;;;22.80;16.43;;;;;;;;;;5096185;28;20433;-82
2021/03/30 05:27:52;;;;;;;20.17;15.40;;;;;;;;;;5096697;28;20424;-78
2021/03/30 05:30:18;;;;;;;23.83;17.47;;;;;;;;;;5095619;28;20493;-80
2021/03/30 05:32:44;;;;;;;27.13;16.63;;;;;;;;;;5105356;28;20440;-78
2021/03/30 05:35:11;;;;;;;25.35;15.95;;;;;;;;;;5115398;28;20575;-77
2021/03/30 05:37:37;;;;;;;18.00;16.10;;;;;;;;;;5096039;28;20255;-79
2021/03/30 05:40:07;;;;;;;23.80;17.60;;;;;;;;;;5096345;28;21030;-78
2021/03/30 05:42:33;;;;;;;27.58;18.90;;;;;;;;;;5096239;28;20535;-81
2021/03/30 05:45:00;;;;;;;29.17;17.80;;;;;;;;;;5095669;28;20226;-80
2021/03/30 05:47:28;;;;;;;27.27;18.83;;;;;;;;;;5113552;28;20590;-79
2021/03/30 05:49:54;;;;;;;25.40;17.40;;;;;;;;;;5096099;28;20258;-77
2021/03/30 05:52:43;;;;;;;30.15;19.08;;;;;;;;;;5095849;28;20171;-78
2021/03/30 05:55:10;;;;;;;23.55;16.73;;;;;;;;;;5111205;28;20667;-79
2021/03/30 05:57:38;;;;;;;25.40;18.02;;;;;;;;;;5108029;28;20175;-78
2021/03/30 06:00:04;;;;;;;24.73;17.50;;;;;;;;;;5086428;28;20176;-78
2021/03/30 06:02:40;;;;;;;23.10;17.80;;;;;;;;;;5084149;28;20179;-77
2021/03/30 06:05:07;;;;;;;20.95;16.35;;;;;;;;;;5095234;28;20241;-77
2021/03/30 06:07:36;;;;;;;23.88;16.95;;;;;;;;;;5092537;28;20184;-79
2021/03/30 06:10:04;;;;;;;27.23;18.25;;;;;;;;;;5109322;28;20265;-78
2021/03/30 06:12:30;;;;;;;20.50;16.70;;;;;;;;;;5112254;28;20235;-78
2021/03/30 06:15:00;;;;;;;22.03;17.27;;;;;;;;;;5112054;28;20218;-78
2021/03/30 06:17:26;;;;;;;21.98;16.42;;;;;;;;;;5096198;28;20425;-79
2021/03/30 06:19:54;;;;;;;18.30;15.95;;;;;;;;;;5090184;28;20519;-78
2021/03/30 06:22:22;;;;;;;23.38;15.63;;;;;;;;;;5086916;28;20184;-80
2021/03/30 06:24:48;;;;;;;21.77;16.02;;;;;;;;;;5090019;28;20207;-80
2021/03/30 06:27:17;;;;;;;20.20;15.85;;;;;;;;;;5087098;28;20183;-79
2021/03/30 06:29:43;;;;;;;18.67;15.07;;;;;;;;;;5087959;28;20185;-79
2021/03/30 06:32:11;;;;;;;22.08;16.35;;;;;;;;;;5094081;28;20207;-81
2021/03/30 06:34:38;;;;;;;21.10;15.73;;;;;;;;;;5098517;28;20675;-78
2021/03/30 06:37:24;;;;;;;21.30;15.07;;;;;;;;;;5111864;28;20273;-78
2021/03/30 06:39:49;;;;;;;26.40;15.25;;;;;;;;;;5102132;28;20229;-81
2021/03/30 06:42:27;;;;;;;22.63;16.30;;;;;;;;;;5091019;28;20191;-80
2021/03/30 06:44:53;;;;;;;21.25;15.82;;;;;;;;;;5090418;28;20448;-81
2021/03/30 06:47:22;;;;;;;21.97;15.30;;;;;;;;;;5089273;28;20179;-78
2021/03/30 06:49:54;;;;;;;17.70;14.57;;;;;;;;;;5090904;28;20421;-78
2021/03/30 06:52:25;;;;;;;17.60;14.98;;;;;;;;;;5090910;28;20199;-80
2021/03/30 06:54:51;;;;;;;38.28;26.33;;;;;;;;;;5090244;28;20207;-79
2021/03/30 06:57:30;;;;;;;24.03;15.90;;;;;;;;;;5090403;28;20179;-79
2021/03/30 06:59:56;;;;;;;21.27;14.13;;;;;;;;;;5090716;28;20736;-78
2021/03/30 07:02:22;;;;;;;17.90;14.73;;;;;;;;;;5090658;28;20224;-79
2021/03/30 07:04:54;;;;;;;18.88;13.88;;;;;;;;;;5093594;28;20445;-80
2021/03/30 07:07:21;;;;;;;16.52;14.80;;;;;;;;;;5094734;28;20179;-80
2021/03/30 07:09:47;;;;;;;19.83;14.85;;;;;;;;;;5093046;28;20207;-80
2021/03/30 07:12:13;;;;;;;18.63;14.65;;;;;;;;;;5111213;28;20186;-81
2021/03/30 07:14:39;;;;;;;19.25;13.95;;;;;;;;;;5096657;27;20215;-80
2021/03/30 07:17:05;;;;;;;17.70;13.80;;;;;;;;;;5095213;28;20316;-80
2021/03/30 07:19:31;;;;;;;17.10;14.02;;;;;;;;;;5092903;28;20517;-79
2021/03/30 07:22:03;;;;;;;21.50;14.95;;;;;;;;;;5105033;28;20252;-80
2021/03/30 07:24:32;;;;;;;17.50;13.80;;;;;;;;;;5107039;28;20187;-81
2021/03/30 07:27:05;;;;;;;16.10;13.57;;;;;;;;;;5105650;28;20180;-80
2021/03/30 07:29:36;;;;;;;17.52;14.20;;;;;;;;;;5100910;28;20172;-79
2021/03/30 07:32:14;;;;;;;18.30;13.23;;;;;;;;;;5085797;28;20206;-80
2021/03/30 07:34:50;;;;;;;16.83;13.73;;;;;;;;;;5077290;28;20214;-81
2021/03/30 07:37:25;;;;;;;13.98;12.50;;;;;;;;;;5091008;28;20183;-80
2021/03/30 07:39:53;;;;;;;17.40;13.85;;;;;;;;;;5090608;28;20320;-82
2021/03/30 07:42:20;;;;;;;16.17;13.82;;;;;;;;;;5090892;28;20308;-77
2021/03/30 07:44:49;;;;;;;19.08;13.07;;;;;;;;;;5090436;28;20205;-77
2021/03/30 07:47:20;;;;;;;14.05;12.55;;;;;;;;;;5090171;28;20604;-78
2021/03/30 07:49:51;;;;;;;13.57;11.80;;;;;;;;;;5091034;28;20172;-79
2021/03/30 07:52:19;;;;;;;15.65;12.95;;;;;;;;;;5091552;28;20159;-78
2021/03/30 07:55:03;;;;;;;17.33;13.00;;;;;;;;;;5091995;28;20214;-80
2021/03/30 07:57:48;;;;;;;14.23;11.77;;;;;;;;;;5092626;28;20172;-78
2021/03/30 08:00:34;;;;;;;20.95;13.20;;;;;;;;;;5092769;28;20516;-79
2021/03/30 08:03:09;;;;;;;20.48;13.95;;;;;;;;;;5092033;28;20179;-78
2021/03/30 08:05:35;;;;;;;16.30;12.52;;;;;;;;;;5091768;28;20211;-79
2021/03/30 08:08:01;;;;;;;14.20;12.68;;;;;;;;;;5091656;28;20168;-78
2021/03/30 08:10:28;;;;;;;16.77;12.93;;;;;;;;;;5091514;28;20257;-79
2021/03/30 08:13:13;;;;;;;16.15;12.75;;;;;;;;;;5091709;28;20167;-80
2021/03/30 08:15:45;;;;;;;15.43;13.00;;;;;;;;;;5091839;28;20187;-79
2021/03/30 08:18:12;;;;;;;14.18;11.88;;;;;;;;;;5097418;28;20521;-80
2021/03/30 08:21:10;;;;;;;14.88;12.70;;;;;;;;;;5097869;28;20654;-78
2021/03/30 08:23:56;;;;;;;14.07;12.13;;;;;;;;;;5059377;28;20188;-78
2021/03/30 08:26:24;;;;;;;14.88;12.05;;;;;;;;;;5106234;28;20270;-78
2021/03/30 08:28:50;;;;;;;14.57;11.50;;;;;;;;;;5117432;28;20183;-79
2021/03/30 08:31:16;;;;;;;14.10;12.33;;;;;;;;;;5097120;28;20237;-78
2021/03/30 08:33:43;;;;;;;14.50;10.95;;;;;;;;;;5100084;28;20469;-79
2021/03/30 08:36:19;;;;;;;17.27;11.88;;;;;;;;;;5119985;28;20191;-79
2021/03/30 08:38:48;;;;;;;17.83;11.70;;;;;;;;;;5110022;28;20183;-78
2021/03/30 08:41:34;;;;;;;17.23;11.93;;;;;;;;;;5111787;28;20646;-76
2021/03/30 08:44:10;;;;;;;12.23;11.02;;;;;;;;;;5102145;28;20428;-78
2021/03/30 08:46:37;;;;;;;12.70;10.82;;;;;;;;;;5108454;28;20198;-78
2021/03/30 08:49:13;;;;;;;14.50;11.93;;;;;;;;;;5102844;28;20199;-78
2021/03/30 08:51:39;;;;;;;17.00;11.77;;;;;;;;;;5116776;28;20461;-80
2021/03/30 08:54:09;;;;;;;14.67;11.30;;;;;;;;;;5096808;28;20469;-80
2021/03/30 08:56:35;;;;;;;14.85;11.10;;;;;;;;;;5097256;28;20433;-79
2021/03/30 08:59:02;;;;;;;15.90;11.50;;;;;;;;;;5101032;28;20699;-79
2021/03/30 09:01:28;;;;;;;13.23;11.33;;;;;;;;;;5115232;27;20415;-80
2021/03/30 09:03:54;;;;;;;12.73;11.23;;;;;;;;;;5103012;27;20437;-79
2021/03/30 09:06:28;;;;;;;15.48;12.15;;;;;;;;;;5093432;28;20448;-80
2021/03/30 09:08:54;;;;;;;13.20;10.63;;;;;;;;;;5102116;28;20224;-81
2021/03/30 09:11:21;;;;;;;16.17;11.23;;;;;;;;;;5114526;28;20443;-81
2021/03/30 09:14:01;;;;;;;11.47;10.07;;;;;;;;;;5104996;28;20764;-80
2021/03/30 09:16:27;;;;;;;12.13;10.93;;;;;;;;;;5093208;28;20469;-78
2021/03/30 09:19:12;;;;;;;14.00;10.97;;;;;;;;;;5093049;28;20766;-80
2021/03/30 09:21:38;;;;;;;12.70;11.40;;;;;;;;;;5113409;28;20402;-81
2021/03/30 09:24:10;;;;;;;13.00;11.17;;;;;;;;;;5099489;28;20929;-79
2021/03/30 09:26:37;;;;;;;11.90;10.70;;;;;;;;;;5080165;28;20428;-81
2021/03/30 09:29:03;;;;;;;12.13;10.30;;;;;;;;;;5092680;28;20497;-80
2021/03/30 09:31:29;;;;;;;12.57;10.47;;;;;;;;;;5093062;28;20446;-80
2021/03/30 09:33:57;;;;;;;10.40;9.30;;;;;;;;;;5092133;28;20504;-78
2021/03/30 09:36:23;;;;;;;13.30;9.93;;;;;;;;;;5099531;28;20446;-82
2021/03/30 09:38:51;;;;;;;13.20;9.77;;;;;;;;;;5107544;28;20435;-80
2021/03/30 09:41:34;;;;;;;10.13;9.13;;;;;;;;;;5092263;28;20413;-81
2021/03/30 09:44:01;;;;;;;10.80;9.47;;;;;;;;;;5096509;28;20436;-81
2021/03/30 09:46:27;;;;;;;10.80;8.87;;;;;;;;;;5100838;28;20459;-80
2021/03/30 09:48:53;;;;;;;10.00;8.97;;;;;;;;;;5090725;28;20922;-80
2021/03/30 09:51:19;;;;;;;9.70;8.80;;;;;;;;;;5092316;28;20416;-81
2021/03/30 09:53:45;;;;;;;9.50;8.67;;;;;;;;;;5098870;28;20869;-81
2021/03/30 09:56:21;;;;;;;8.73;8.07;;;;;;;;;;5093185;28;20488;-80
2021/03/30 09:58:48;;;;;;;9.13;8.43;;;;;;;;;;5111244;28;20459;-80
2021/03/30 10:01:14;;;;;;;8.00;7.30;;;;;;;;;;5094195;28;21157;-81
2021/03/30 10:03:40;;;;;;;9.30;8.40;;;;;;;;;;5090033;28;21057;-81
2021/03/30 10:06:21;;;;;;;10.33;9.40;;;;;;;;;;5104907;28;20502;-81
2021/03/30 10:08:48;;;;;;;9.33;8.63;;;;;;;;;;5103384;27;20418;-81
2021/03/30 10:11:26;;;;;;;9.20;8.40;;;;;;;;;;5091486;28;20429;-81
2021/03/30 10:13:52;;;;;;;8.43;7.80;;;;;;;;;;5091569;28;20492;-81
2021/03/30 10:16:18;;;;;;;8.63;7.73;;;;;;;;;;5112857;28;20432;-81
2021/03/30 10:18:44;;;;;;;14.20;12.90;;;;;;;;;;5118478;28;20411;-81
2021/03/30 10:21:12;;;;;;;8.87;8.10;;;;;;;;;;5093248;28;20471;-81
2021/03/30 10:23:49;;;;;;;9.80;8.90;;;;;;;;;;5091860;28;20413;-81
2021/03/30 10:26:22;;;;;;;9.20;8.40;;;;;;;;;;5096759;28;20452;-81
2021/03/30 10:28:55;;;;;;;8.67;7.97;;;;;;;;;;5112126;28;20914;-81
2021/03/30 10:31:36;;;;;;;9.00;8.30;;;;;;;;;;5084277;28;21009;-81
2021/03/30 10:34:02;;;;;;;9.57;8.50;;;;;;;;;;5086521;28;20973;-83
2021/03/30 10:36:28;;;;;;;8.00;7.30;;;;;;;;;;5100409;28;20451;-81
2021/03/30 10:39:01;;;;;;;7.47;6.97;;;;;;;;;;5111824;27;20489;-81
2021/03/30 10:41:34;;;;;;;8.17;7.30;;;;;;;;;;5091533;28;20452;-80
2021/03/30 10:44:00;;;;;;;7.70;7.03;;;;;;;;;;5088790;28;20433;-81
2021/03/30 10:46:26;;;;;;;9.27;7.77;;;;;;;;;;5090927;28;21060;-83
2021/03/30 10:49:02;;;;;;;6.87;6.17;;;;;;;;;;5091175;28;20428;-79
2021/03/30 10:51:30;;;;;;;6.83;6.20;;;;;;;;;;5090895;28;20512;-79
2021/03/30 10:53:58;;;;;;;7.20;6.60;;;;;;;;;;5099657;28;20469;-81
2021/03/30 10:56:24;;;;;;;6.90;6.23;;;;;;;;;;5090581;28;20433;-82
2021/03/30 10:58:50;;;;;;;7.93;6.60;;;;;;;;;;5095778;28;20435;-82
2021/03/30 11:01:16;;;;;;;8.33;7.00;;;;;;;;;;5103303;28;20429;-81
2021/03/30 11:03:42;;;;;;;7.50;6.80;;;;;;;;;;5095268;28;20420;-81
2021/03/30 11:06:08;;;;;;;7.70;7.00;;;;;;;;;;5103883;28;20868;-82
2021/03/30 11:08:34;;;;;;;6.53;6.03;;;;;;;;;;5110646;28;20420;-82
2021/03/30 11:11:00;;;;;;;7.70;6.63;;;;;;;;;;5104646;28;21088;-82
2021/03/30 11:13:26;;;;;;;7.57;6.53;;;;;;;;;;5110587;28;20464;-82
2021/03/30 11:15:52;;;;;;;6.77;6.20;;;;;;;;;;5101520;28;20591;-82
2021/03/30 11:18:19;;;;;;;7.30;6.70;;;;;;;;;;5091918;28;20537;-82
2021/03/30 11:20:45;;;;;;;6.20;5.60;;;;;;;;;;5091448;28;20433;-82
2021/03/30 11:23:11;;;;;;;6.60;6.10;;;;;;;;;;5090252;28;20409;-82
2021/03/30 11:25:37;;;;;;;6.10;5.70;;;;;;;;;;5090376;28;20599;-82
2021/03/30 11:28:07;;;;;;;6.83;6.13;;;;;;;;;;5104628;28;20865;-81
2021/03/30 11:30:47;;;;;;;7.37;6.67;;;;;;;;;;5087233;28;20438;-83
2021/03/30 11:33:19;;;;;;;6.80;6.30;;;;;;;;;;5086806;28;20461;-81
2021/03/30 11:36:02;;;;;;;7.60;6.90;;;;;;;;;;5092458;28;20962;-82
2021/03/30 11:38:29;;;;;;;7.07;6.47;;;;;;;;;;5111620;28;20408;-82
2021/03/30 11:40:54;;;;;;;7.13;6.43;;;;;;;;;;5105397;28;20845;-82
2021/03/30 11:43:20;;;;;;;7.20;6.60;;;;;;;;;;5090021;28;20460;-82
2021/03/30 11:45:46;;;;;;;7.10;6.40;;;;;;;;;;5090140;28;20441;-81
2021/03/30 11:48:12;;;;;;;7.47;6.77;;;;;;;;;;5089720;28;20975;-81
2021/03/30 11:50:39;;;;;;;7.47;6.70;;;;;;;;;;5108262;28;20416;-83
2021/03/30 11:53:05;;;;;;;7.30;6.70;;;;;;;;;;5099915;28;20428;-82
2021/03/30 11:55:31;;;;;;;8.17;7.47;;;;;;;;;;5091402;28;20429;-81
2021/03/30 11:57:57;;;;;;;6.90;6.20;;;;;;;;;;5089654;28;20417;-81
2021/03/30 12:00:23;;;;;;;7.23;6.63;;;;;;;;;;5107991;28;20562;-82
2021/03/30 12:02:50;;;;;;;7.30;6.70;;;;;;;;;;5091250;28;20464;-81
2021/03/30 12:05:20;;;;;;;7.83;7.10;;;;;;;;;;5089452;28;20456;-78
2021/03/30 12:07:47;;;;;;;6.77;6.13;;;;;;;;;;5095389;28;20516;-75
2021/03/30 12:10:14;;;;;;;9.93;7.03;;;;;;;;;;5103448;28;20425;-74
2021/03/30 12:12:40;;;;;;;7.60;6.40;;;;;;;;;;5081375;28;20417;-75
2021/03/30 12:15:07;;;;;;;7.13;6.50;;;;;;;;;;5090098;28;20476;-77
2021/03/30 12:17:33;;;;;;;7.30;6.60;;;;;;;;;;5101263;28;20431;-74
2021/03/30 12:20:00;;;;;;;6.47;6.03;;;;;;;;;;5094168;28;20425;-74
2021/03/30 12:22:27;;;;;;;6.87;6.20;;;;;;;;;;5089008;28;20496;-76
2021/03/30 12:24:53;;;;;;;8.23;6.60;;;;;;;;;;5107366;28;20459;-75
2021/03/30 12:27:19;;;;;;;7.57;6.37;;;;;;;;;;5105120;28;20945;-80
2021/03/30 12:29:45;;;;;;;6.33;5.73;;;;;;;;;;5089142;28;20465;-77
2021/03/30 12:32:11;;;;;;;5.90;5.30;;;;;;;;;;5080318;28;20430;-80
2021/03/30 12:34:37;;;;;;;5.83;5.33;;;;;;;;;;5100520;28;20468;-79
2021/03/30 12:37:04;;;;;;;5.97;4.50;;;;;;;;;;5088848;28;20417;-78
2021/03/30 12:39:30;;;;;;;5.40;4.83;;;;;;;;;;5089081;28;20513;-80
2021/03/30 12:41:56;;;;;;;5.33;4.83;;;;;;;;;;5089148;28;20534;-80
2021/03/30 12:44:22;;;;;;;5.27;4.80;;;;;;;;;;5089157;28;20463;-82
2021/03/30 12:46:48;;;;;;;4.67;4.33;;;;;;;;;;5088781;28;20408;-80
2021/03/30 12:49:14;;;;;;;8.30;7.57;;;;;;;;;;5090029;28;20418;-82
2021/03/30 12:51:41;;;;;;;5.30;4.90;;;;;;;;;;5090386;28;20425;-78
2021/03/30 12:54:07;;;;;;;4.87;4.47;;;;;;;;;;5088152;28;20877;-77
2021/03/30 12:56:33;;;;;;;4.03;3.73;;;;;;;;;;5089526;28;20531;-80
2021/03/30 12:58:59;;;;;;;5.07;4.67;;;;;;;;;;5089343;28;20503;-77
2021/03/30 13:01:25;;;;;;;4.20;3.80;;;;;;;;;;5091303;28;20483;-79
2021/03/30 13:03:51;;;;;;;5.00;4.50;;;;;;;;;;5089088;28;20436;-77
2021/03/30 13:06:17;;;;;;;4.27;3.90;;;;;;;;;;5090677;28;20536;-81
2021/03/30 13:08:43;;;;;;;3.63;3.30;;;;;;;;;;5104778;28;20947;-81
2021/03/30 13:11:09;;;;;;;3.20;2.90;;;;;;;;;;5092328;28;20445;-79
2021/03/30 13:13:35;;;;;;;4.53;4.13;;;;;;;;;;5088757;28;20464;-79
2021/03/30 13:16:01;;;;;;;3.93;3.60;;;;;;;;;;5089060;28;20429;-78
2021/03/30 13:18:27;;;;;;;4.67;4.27;;;;;;;;;;5091638;28;20429;-80
2021/03/30 13:20:53;;;;;;;4.33;3.90;;;;;;;;;;5103355;28;20413;-78
2021/03/30 13:23:19;;;;;;;4.23;3.83;;;;;;;;;;5090353;28;20882;-80
2021/03/30 13:25:45;;;;;;;5.37;3.90;;;;;;;;;;5095370;28;20446;-79
2021/03/30 13:28:11;;;;;;;4.23;3.30;;;;;;;;;;5103583;28;20436;-78
2021/03/30 13:30:39;;;;;;;3.83;3.10;;;;;;;;;;5094520;28;20478;-81
2021/03/30 13:33:05;;;;;;;3.70;3.33;;;;;;;;;;5093970;28;20779;-80
2021/03/30 13:35:31;;;;;;;3.77;3.40;;;;;;;;;;5099741;28;20819;-79
2021/03/30 13:37:57;;;;;;;5.03;3.33;;;;;;;;;;5100235;28;20413;-80
2021/03/30 13:40:24;;;;;;;5.23;4.37;;;;;;;;;;5093100;28;20409;-81
2021/03/30 13:42:50;;;;;;;4.30;3.33;;;;;;;;;;5090947;28;21149;-79
2021/03/30 13:45:16;;;;;;;3.83;3.20;;;;;;;;;;5085695;28;20434;-79
2021/03/30 13:47:42;;;;;;;3.97;3.10;;;;;;;;;;5086898;28;20418;-80
2021/03/30 13:50:09;;;;;;;4.73;3.17;;;;;;;;;;5093303;28;20441;-79
2021/03/30 13:52:35;;;;;;;3.43;2.87;;;;;;;;;;5106827;28;20416;-79
2021/03/30 13:55:02;;;;;;;6.70;3.73;;;;;;;;;;5108317;28;20555;-80
2021/03/30 13:57:28;;;;;;;5.27;3.53;;;;;;;;;;5091030;28;20488;-79
2021/03/30 13:59:54;;;;;;;5.10;3.13;;;;;;;;;;5104543;28;20483;-79
2021/03/30 14:02:20;;;;;;;3.80;3.40;;;;;;;;;;5105586;28;20503;-79
2021/03/30 14:04:46;;;;;;;4.53;3.20;;;;;;;;;;5100266;28;20576;-79
2021/03/30 14:07:12;;;;;;;5.77;3.70;;;;;;;;;;5092393;28;20421;-79
2021/03/30 14:09:38;;;;;;;5.50;3.57;;;;;;;;;;5091793;28;21073;-80
2021/03/30 14:12:10;;;;;;;4.90;3.63;;;;;;;;;;5092676;28;20409;-81
2021/03/30 14:14:39;;;;;;;6.00;3.50;;;;;;;;;;5088396;28;20838;-79
2021/03/30 14:17:08;;;;;;;5.00;3.60;;;;;;;;;;5106033;28;20417;-80
2021/03/30 14:19:44;;;;;;;4.40;3.40;;;;;;;;;;5091483;28;20448;-79
2021/03/30 14:22:21;;;;;;;5.37;3.90;;;;;;;;;;5091361;28;20432;-79
2021/03/30 14:24:59;;;;;;;4.10;3.50;;;;;;;;;;5100606;28;20502;-79
2021/03/30 14:27:26;;;;;;;5.00;4.17;;;;;;;;;;5091959;28;20429;-78
2021/03/30 14:29:52;;;;;;;5.23;3.67;;;;;;;;;;5104352;28;20428;-78
2021/03/30 14:32:20;;;;;;;5.30;3.93;;;;;;;;;;5092588;28;20429;-79